Time;durP1;ratioP1;P1;durP2;ratioP2;P2;SDS_P1;SDS_P2;PMS_P1;PMS_P2;Temp;Humidity;BMP_temperature;BMP_pressure;BME280_temperature;BME280_humidity;BME280_pressure;Samples;Min_cycle;Max_cycle;Signal;HPM_P1;HPM_P2
2022/03/15 00:00:25;;;;;;;2.60;1.90;;;24.40;27.80;;;;;;4919555;29;20889;-70
2022/03/15 00:02:51;;;;;;;2.97;2.13;;;24.40;27.80;;;;;;4936777;29;20403;-70
2022/03/15 00:05:18;;;;;;;2.55;1.95;;;24.40;27.90;;;;;;4919700;29;20502;-70
2022/03/15 00:07:44;;;;;;;2.83;2.00;;;24.30;27.80;;;;;;4936476;29;20490;-70
2022/03/15 00:10:12;;;;;;;3.10;2.07;;;24.40;27.80;;;;;;4919551;29;21021;-70
2022/03/15 00:12:42;;;;;;;3.00;2.05;;;24.40;27.80;;;;;;4919078;29;20395;-71
2022/03/15 00:15:09;;;;;;;3.03;2.05;;;24.30;27.80;;;;;;4936534;29;20403;-70
2022/03/15 00:17:36;;;;;;;2.50;1.92;;;24.40;27.80;;;;;;4918611;29;20478;-70
2022/03/15 00:20:05;;;;;;;2.40;2.03;;;24.40;27.80;;;;;;4919033;29;20506;-71
2022/03/15 00:22:41;;;;;;;2.65;1.83;;;24.40;27.70;;;;;;4936526;29;20410;-70
2022/03/15 00:25:09;;;;;;;2.55;1.92;;;24.40;27.80;;;;;;4919200;29;20890;-70
2022/03/15 00:27:36;;;;;;;2.83;2.17;;;24.30;27.70;;;;;;4935895;29;20558;-70
2022/03/15 00:30:03;;;;;;;3.10;1.90;;;24.40;27.80;;;;;;4919271;29;20484;-70
2022/03/15 00:32:29;;;;;;;2.85;2.00;;;24.40;27.70;;;;;;4935818;29;20917;-70
2022/03/15 00:34:55;;;;;;;2.58;1.90;;;24.40;27.60;;;;;;4935960;29;20400;-70
2022/03/15 00:37:21;;;;;;;3.55;2.03;;;24.40;27.50;;;;;;4918378;29;21353;-70
2022/03/15 00:39:47;;;;;;;2.85;1.83;;;24.40;27.60;;;;;;4919580;29;20407;-69
2022/03/15 00:42:13;;;;;;;2.88;1.83;;;24.40;27.50;;;;;;4918947;29;20434;-69
2022/03/15 00:44:38;;;;;;;2.70;1.90;;;24.40;27.50;;;;;;4919011;29;20415;-70
2022/03/15 00:47:05;;;;;;;2.78;1.92;;;24.40;27.50;;;;;;4935863;29;20421;-70
2022/03/15 00:49:32;;;;;;;3.08;2.20;;;24.40;27.50;;;;;;4935458;29;20395;-70
2022/03/15 00:51:58;;;;;;;2.60;2.00;;;24.40;27.50;;;;;;4918774;29;20419;-70
2022/03/15 00:54:23;;;;;;;3.07;1.90;;;24.40;27.50;;;;;;4918715;29;20427;-71
2022/03/15 00:56:52;;;;;;;3.13;1.83;;;24.30;27.50;;;;;;4935821;29;20427;-70
2022/03/15 00:59:18;;;;;;;3.30;1.92;;;24.30;27.60;;;;;;4935573;29;20392;-70
2022/03/15 01:01:44;;;;;;;2.85;2.00;;;24.30;27.60;;;;;;4918852;29;20403;-70
2022/03/15 01:04:09;;;;;;;2.90;2.00;;;24.30;27.50;;;;;;4936432;29;20396;-70
2022/03/15 01:06:37;;;;;;;2.83;2.07;;;24.30;27.40;;;;;;4935458;29;20416;-71
2022/03/15 01:09:03;;;;;;;3.08;1.92;;;24.30;27.50;;;;;;4918341;29;20435;-70
2022/03/15 01:11:29;;;;;;;3.20;2.00;;;24.30;27.40;;;;;;4935358;29;20890;-71
2022/03/15 01:13:54;;;;;;;2.88;1.90;;;24.30;27.40;;;;;;4935604;29;20422;-70
2022/03/15 01:16:20;;;;;;;2.60;1.83;;;24.30;27.40;;;;;;4935363;29;20422;-70
2022/03/15 01:18:46;;;;;;;2.03;1.70;;;24.30;27.40;;;;;;4918639;29;20424;-70
2022/03/15 01:21:13;;;;;;;2.88;2.10;;;24.30;27.40;;;;;;4935286;29;20402;-70
2022/03/15 01:23:40;;;;;;;2.67;1.90;;;24.30;27.40;;;;;;4934926;29;20399;-71
2022/03/15 01:26:05;;;;;;;2.33;1.80;;;24.30;27.40;;;;;;4934241;29;20395;-70
2022/03/15 01:28:31;;;;;;;2.80;2.00;;;24.30;27.40;;;;;;4935170;29;20398;-71
2022/03/15 01:30:57;;;;;;;2.63;1.80;;;24.30;27.40;;;;;;4918089;29;20902;-70
2022/03/15 01:33:23;;;;;;;2.60;1.87;;;24.20;27.40;;;;;;4935198;29;20419;-71
2022/03/15 01:35:48;;;;;;;2.70;1.90;;;24.30;27.30;;;;;;4917769;29;20451;-71
2022/03/15 01:38:15;;;;;;;2.67;1.85;;;24.20;27.30;;;;;;4934894;29;20432;-71
2022/03/15 01:40:40;;;;;;;2.75;1.88;;;24.20;27.30;;;;;;4917991;29;20918;-70
2022/03/15 01:43:06;;;;;;;2.40;1.90;;;24.20;27.30;;;;;;4917804;29;20499;-71
2022/03/15 01:45:37;;;;;;;3.10;1.98;;;24.20;27.30;;;;;;4917598;29;20759;-69
2022/03/15 01:48:03;;;;;;;2.78;1.90;;;24.20;27.30;;;;;;4934926;29;20410;-71
2022/03/15 01:50:29;;;;;;;3.00;2.00;;;24.20;27.30;;;;;;4934753;29;20399;-71
2022/03/15 01:52:55;;;;;;;2.37;1.80;;;24.20;27.40;;;;;;4934750;29;20400;-70
2022/03/15 01:55:21;;;;;;;2.10;1.50;;;24.20;27.40;;;;;;4917596;29;20399;-70
2022/03/15 01:57:47;;;;;;;2.58;1.70;;;24.20;27.40;;;;;;4917209;29;20559;-70
2022/03/15 02:00:14;;;;;;;2.30;1.70;;;24.20;27.40;;;;;;4934717;29;20862;-71
2022/03/15 02:02:40;;;;;;;2.60;1.80;;;24.10;27.30;;;;;;4934835;29;20770;-70
2022/03/15 02:05:06;;;;;;;3.53;1.70;;;24.10;27.30;;;;;;4917563;29;20400;-70
2022/03/15 02:07:32;;;;;;;2.47;1.80;;;24.10;27.30;;;;;;4934361;29;20403;-70
2022/03/15 02:09:57;;;;;;;3.00;1.70;;;24.10;27.30;;;;;;4917485;29;20395;-70
2022/03/15 02:12:23;;;;;;;2.40;1.70;;;24.10;27.20;;;;;;4934605;29;20407;-70
2022/03/15 02:14:49;;;;;;;3.10;1.90;;;24.10;27.20;;;;;;4917285;29;20815;-71
2022/03/15 02:17:14;;;;;;;2.30;1.80;;;24.10;27.10;;;;;;4917278;29;20420;-70
2022/03/15 02:19:43;;;;;;;2.80;1.60;;;24.10;27.20;;;;;;4933841;29;20890;-70
2022/03/15 02:22:09;;;;;;;2.03;1.60;;;24.10;27.20;;;;;;4934316;29;20399;-70
2022/03/15 02:24:35;;;;;;;2.85;1.75;;;24.10;27.20;;;;;;4917663;29;20800;-70
2022/03/15 02:27:01;;;;;;;2.20;1.63;;;24.10;27.20;;;;;;4917396;29;20399;-70
2022/03/15 02:29:27;;;;;;;2.80;1.70;;;24.00;27.10;;;;;;4934091;29;20403;-70
2022/03/15 02:31:53;;;;;;;2.50;1.55;;;24.00;27.20;;;;;;4934083;29;20917;-70
2022/03/15 02:34:19;;;;;;;2.27;1.60;;;24.00;27.20;;;;;;4934353;29;20803;-70
2022/03/15 02:36:45;;;;;;;2.50;1.80;;;24.00;27.30;;;;;;4916835;29;20424;-71
2022/03/15 02:39:12;;;;;;;2.45;1.80;;;24.00;27.30;;;;;;4933948;29;20403;-70
2022/03/15 02:41:37;;;;;;;2.00;1.50;;;24.00;27.30;;;;;;4933720;29;20391;-70
2022/03/15 02:44:04;;;;;;;2.30;1.67;;;24.00;27.80;;;;;;4934141;29;20399;-70
2022/03/15 02:46:30;;;;;;;2.33;1.60;;;24.00;27.30;;;;;;4917130;29;20435;-70
2022/03/15 02:48:59;;;;;;;1.98;1.40;;;24.00;27.30;;;;;;4934270;29;20399;-70
2022/03/15 02:51:25;;;;;;;2.05;1.70;;;23.90;27.20;;;;;;4934182;29;20403;-70
2022/03/15 02:53:54;;;;;;;2.20;1.58;;;23.90;27.20;;;;;;4916856;29;20379;-70
2022/03/15 02:56:21;;;;;;;2.03;1.38;;;23.90;27.30;;;;;;4934029;29;20910;-70
2022/03/15 02:58:46;;;;;;;1.90;1.60;;;24.00;27.30;;;;;;4934140;29;20392;-70
2022/03/15 03:01:12;;;;;;;2.13;1.50;;;23.90;27.20;;;;;;4916909;29;20494;-70
2022/03/15 03:03:38;;;;;;;2.05;1.50;;;23.90;27.30;;;;;;4916650;29;20403;-70
2022/03/15 03:06:05;;;;;;;1.90;1.38;;;23.90;27.30;;;;;;4917177;29;20419;-70
2022/03/15 03:08:32;;;;;;;2.42;1.70;;;23.90;27.30;;;;;;4934085;29;20480;-70
2022/03/15 03:10:58;;;;;;;2.00;1.40;;;23.90;27.30;;;;;;4934018;29;20408;-70
2022/03/15 03:13:27;;;;;;;2.40;1.40;;;23.90;27.30;;;;;;4933976;29;20398;-70
2022/03/15 03:15:59;;;;;;;2.85;1.60;;;23.90;27.30;;;;;;4916340;29;20786;-70
2022/03/15 03:18:28;;;;;;;2.17;1.40;;;23.90;27.30;;;;;;4916619;29;20434;-70
2022/03/15 03:20:55;;;;;;;1.90;1.40;;;23.90;27.30;;;;;;4933965;29;20401;-70
2022/03/15 03:23:21;;;;;;;2.08;1.45;;;23.90;27.30;;;;;;4916804;29;20411;-71
2022/03/15 03:25:47;;;;;;;2.17;1.40;;;23.90;27.30;;;;;;4933465;29;20522;-71
2022/03/15 03:28:14;;;;;;;1.97;1.50;;;23.90;27.30;;;;;;4916792;29;20487;-71
2022/03/15 03:30:48;;;;;;;1.90;1.33;;;23.90;27.30;;;;;;4916801;29;20506;-70
2022/03/15 03:33:15;;;;;;;2.03;1.33;;;23.90;27.30;;;;;;4933673;29;20396;-70
2022/03/15 03:35:43;;;;;;;2.70;1.40;;;23.80;27.20;;;;;;4933263;29;20396;-70
2022/03/15 03:38:09;;;;;;;2.28;1.40;;;23.80;27.20;;;;;;4916623;29;20408;-70
2022/03/15 03:40:34;;;;;;;2.35;1.60;;;23.80;27.20;;;;;;4933674;29;20446;-70
2022/03/15 03:43:00;;;;;;;2.47;1.40;;;23.80;27.20;;;;;;4933729;29;20782;-71
2022/03/15 03:45:27;;;;;;;2.08;1.50;;;23.80;27.20;;;;;;4916335;29;20392;-70
2022/03/15 03:47:52;;;;;;;1.88;1.10;;;23.80;27.20;;;;;;4916389;29;20435;-70
2022/03/15 03:50:19;;;;;;;1.70;1.40;;;23.80;27.20;;;;;;4919874;29;20439;-71
2022/03/15 03:52:44;;;;;;;1.87;1.30;;;23.80;27.20;;;;;;4919960;29;20403;-70
2022/03/15 03:55:11;;;;;;;2.38;1.48;;;23.80;27.20;;;;;;4936952;29;20751;-70
2022/03/15 03:57:37;;;;;;;1.90;1.40;;;23.80;27.30;;;;;;4919698;29;20431;-70
2022/03/15 04:00:06;;;;;;;1.95;1.40;;;23.80;27.30;;;;;;4937462;29;20917;-70
2022/03/15 04:02:32;;;;;;;2.47;1.48;;;23.80;27.30;;;;;;4936800;29;20494;-71
2022/03/15 04:04:58;;;;;;;3.10;1.60;;;23.80;27.60;;;;;;4936794;29;20460;-71
2022/03/15 04:07:24;;;;;;;4.03;1.50;;;23.70;27.60;;;;;;4936658;29;20407;-71
2022/03/15 04:09:51;;;;;;;3.22;1.40;;;23.60;27.90;;;;;;4936592;29;20435;-70
2022/03/15 04:12:24;;;;;;;2.80;1.25;;;23.60;27.90;;;;;;4936462;29;20403;-71
2022/03/15 04:14:51;;;;;;;2.47;1.50;;;23.60;27.80;;;;;;4936754;29;20399;-70
2022/03/15 04:17:17;;;;;;;3.65;1.50;;;23.60;28.00;;;;;;4936539;29;20531;-70
2022/03/15 04:19:42;;;;;;;3.20;1.50;;;23.60;27.80;;;;;;4936025;29;20428;-71
2022/03/15 04:22:08;;;;;;;2.92;1.52;;;23.70;28.20;;;;;;4936299;29;20894;-73
2022/03/15 04:24:34;;;;;;;4.23;1.70;;;23.70;28.20;;;;;;4936783;29;20912;-71
2022/03/15 04:27:00;;;;;;;3.55;1.67;;;23.60;28.70;;;;;;4919693;29;20815;-72
2022/03/15 04:29:28;;;;;;;2.65;1.60;;;23.60;28.80;;;;;;4936314;29;20954;-70
2022/03/15 04:31:54;;;;;;;3.65;1.65;;;23.70;29.40;;;;;;4918936;29;20422;-71
2022/03/15 04:34:20;;;;;;;5.65;1.45;;;23.70;29.80;;;;;;4945242;28;20958;-71
2022/03/15 04:36:46;;;;;;;3.63;1.40;;;23.70;30.50;;;;;;4956854;28;20443;-71
2022/03/15 04:39:12;;;;;;;6.10;1.60;;;23.70;30.50;;;;;;4956531;28;20388;-70
2022/03/15 04:41:38;;;;;;;3.35;1.40;;;23.70;30.50;;;;;;4956370;28;20495;-72
2022/03/15 04:44:06;;;;;;;2.42;1.23;;;23.80;30.70;;;;;;4947879;28;20403;-71
2022/03/15 04:46:33;;;;;;;3.50;1.63;;;23.80;30.70;;;;;;4942832;29;20406;-70
2022/03/15 04:48:59;;;;;;;5.32;1.30;;;23.80;31.00;;;;;;4925912;29;20391;-71
2022/03/15 04:51:25;;;;;;;4.38;1.40;;;23.90;30.80;;;;;;4944331;29;20400;-70
2022/03/15 04:53:52;;;;;;;7.93;1.42;;;23.90;31.30;;;;;;4926293;29;20396;-72
2022/03/15 04:56:18;;;;;;;3.95;1.52;;;23.90;31.20;;;;;;4945857;28;20906;-71
2022/03/15 04:58:44;;;;;;;5.80;1.40;;;23.90;30.60;;;;;;4927242;28;20402;-71
2022/03/15 05:01:10;;;;;;;5.10;1.50;;;23.90;30.00;;;;;;4943296;29;20457;-72
2022/03/15 05:03:36;;;;;;;5.50;1.43;;;23.90;29.70;;;;;;4948151;29;20489;-71
2022/03/15 05:06:03;;;;;;;4.85;1.42;;;23.80;29.70;;;;;;4924534;29;20435;-72
2022/03/15 05:08:29;;;;;;;4.40;1.48;;;23.80;29.70;;;;;;4942991;29;20402;-71
2022/03/15 05:11:07;;;;;;;3.65;1.38;;;23.80;30.00;;;;;;4926125;29;20908;-71
2022/03/15 05:13:39;;;;;;;7.65;1.48;;;23.70;29.90;;;;;;4942018;29;20395;-71
2022/03/15 05:16:11;;;;;;;10.93;1.55;;;23.70;30.30;;;;;;4917880;29;20458;-71
2022/03/15 05:18:39;;;;;;;8.20;1.55;;;23.70;30.00;;;;;;4917992;29;20419;-70
2022/03/15 05:21:05;;;;;;;7.75;1.60;;;23.70;29.80;;;;;;4935404;29;20415;-71
2022/03/15 05:23:31;;;;;;;6.38;1.45;;;23.70;29.30;;;;;;4934699;29;20391;-71
2022/03/15 05:25:57;;;;;;;5.40;1.45;;;23.70;29.40;;;;;;4934422;29;20762;-71
2022/03/15 05:28:23;;;;;;;6.53;1.50;;;23.70;29.10;;;;;;4935115;29;20394;-70
2022/03/15 05:30:49;;;;;;;6.90;1.60;;;23.70;29.10;;;;;;4918244;29;20987;-71
2022/03/15 05:33:14;;;;;;;4.25;1.60;;;23.70;29.20;;;;;;4934786;29;20440;-71
2022/03/15 05:35:40;;;;;;;6.18;1.55;;;23.60;28.90;;;;;;4934926;29;20399;-71
2022/03/15 05:38:06;;;;;;;5.17;1.67;;;23.70;28.90;;;;;;4917750;29;20412;-70
2022/03/15 05:40:32;;;;;;;5.93;1.50;;;23.70;28.70;;;;;;4935156;29;20890;-70
2022/03/15 05:42:58;;;;;;;3.97;1.45;;;23.70;28.50;;;;;;4917979;29;20411;-70
2022/03/15 05:45:25;;;;;;;4.20;1.80;;;23.80;28.40;;;;;;4934936;29;20462;-70
2022/03/15 05:47:51;;;;;;;2.57;1.80;;;23.70;27.90;;;;;;4917484;29;20459;-69
2022/03/15 05:50:18;;;;;;;4.80;2.13;;;23.60;27.90;;;;;;4917626;29;20411;-70
2022/03/15 05:52:44;;;;;;;3.90;2.17;;;23.60;27.60;;;;;;4934761;29;20435;-71
2022/03/15 05:55:13;;;;;;;4.32;2.30;;;23.50;27.20;;;;;;4917669;29;20399;-71
2022/03/15 05:57:39;;;;;;;4.53;1.95;;;23.50;27.20;;;;;;4934444;29;20483;-71
2022/03/15 06:00:10;;;;;;;3.17;1.95;;;23.50;27.10;;;;;;4917395;29;20403;-70
2022/03/15 06:02:36;;;;;;;5.28;2.30;;;23.50;27.00;;;;;;4934765;29;20402;-71
2022/03/15 06:05:03;;;;;;;4.38;1.90;;;23.50;27.10;;;;;;4934594;29;20395;-71
2022/03/15 06:07:30;;;;;;;5.05;2.40;;;23.50;27.00;;;;;;4917637;29;20458;-70
2022/03/15 06:09:59;;;;;;;5.65;2.30;;;23.50;26.90;;;;;;4933919;29;20435;-71
2022/03/15 06:12:25;;;;;;;4.87;2.13;;;23.50;26.90;;;;;;4916721;29;20748;-71
2022/03/15 06:14:52;;;;;;;3.88;2.00;;;23.40;26.90;;;;;;4917379;29;20423;-71
2022/03/15 06:17:18;;;;;;;3.80;2.10;;;23.50;27.00;;;;;;4934282;29;20423;-71
2022/03/15 06:19:44;;;;;;;4.00;1.98;;;23.40;27.00;;;;;;4917052;29;20795;-72
2022/03/15 06:22:10;;;;;;;4.13;1.80;;;23.40;27.00;;;;;;4916965;29;20907;-72
2022/03/15 06:24:36;;;;;;;4.50;2.00;;;23.40;27.10;;;;;;4917531;29;20408;-70
2022/03/15 06:27:02;;;;;;;3.47;1.80;;;23.40;27.20;;;;;;4917295;29;20414;-71
2022/03/15 06:29:29;;;;;;;2.90;1.88;;;23.40;27.20;;;;;;4917205;29;20400;-71
2022/03/15 06:31:55;;;;;;;3.17;1.67;;;23.40;27.20;;;;;;4933976;29;20762;-70
2022/03/15 06:34:20;;;;;;;3.38;2.15;;;23.40;27.20;;;;;;4934259;29;20394;-71
2022/03/15 06:36:47;;;;;;;3.03;1.75;;;23.40;27.20;;;;;;4917166;29;20428;-70
2022/03/15 06:39:13;;;;;;;3.13;1.85;;;23.30;27.20;;;;;;4917219;29;20407;-72
2022/03/15 06:41:39;;;;;;;2.80;1.80;;;23.30;27.20;;;;;;4934088;29;20406;-71
2022/03/15 06:44:05;;;;;;;3.28;1.85;;;23.30;27.30;;;;;;4934055;29;20407;-71
2022/03/15 06:46:32;;;;;;;2.88;1.50;;;23.30;27.30;;;;;;4917174;29;20458;-71
2022/03/15 06:48:58;;;;;;;2.67;1.63;;;23.40;27.30;;;;;;4917041;29;20747;-71
2022/03/15 06:51:24;;;;;;;2.80;1.70;;;23.30;27.30;;;;;;4934065;29;20416;-71
2022/03/15 06:53:49;;;;;;;2.88;1.65;;;23.30;27.30;;;;;;4916660;29;20512;-70
2022/03/15 06:56:15;;;;;;;2.37;1.50;;;23.30;27.40;;;;;;4934066;29;20875;-72
2022/03/15 06:58:41;;;;;;;2.65;1.60;;;23.30;27.40;;;;;;4934200;29;20404;-71
2022/03/15 07:01:06;;;;;;;2.60;1.70;;;23.30;27.40;;;;;;4916626;29;20403;-71
2022/03/15 07:03:34;;;;;;;2.72;1.77;;;23.30;27.40;;;;;;4934067;29;20484;-70
2022/03/15 07:05:59;;;;;;;2.25;1.70;;;23.30;27.40;;;;;;4916546;29;20408;-71
2022/03/15 07:08:25;;;;;;;2.17;1.50;;;23.30;27.40;;;;;;4934163;29;20423;-70
2022/03/15 07:10:52;;;;;;;2.85;1.63;;;23.30;27.40;;;;;;4934140;29;20402;-71
2022/03/15 07:13:19;;;;;;;2.92;1.70;;;23.30;27.40;;;;;;4933935;29;20403;-72
2022/03/15 07:15:45;;;;;;;2.30;1.70;;;23.20;27.40;;;;;;4933742;29;20451;-70
2022/03/15 07:18:11;;;;;;;2.95;2.08;;;23.20;27.40;;;;;;4933426;29;20406;-70
2022/03/15 07:20:37;;;;;;;2.33;1.87;;;23.30;27.40;;;;;;4933692;29;20403;-72
2022/03/15 07:23:03;;;;;;;2.33;1.80;;;23.20;27.40;;;;;;4917181;29;20426;-71
2022/03/15 07:25:29;;;;;;;2.33;1.65;;;23.20;27.50;;;;;;4920460;29;20428;-71
2022/03/15 07:27:56;;;;;;;2.53;1.70;;;23.20;27.40;;;;;;4920011;29;20400;-70
2022/03/15 07:30:22;;;;;;;2.30;1.65;;;23.20;27.40;;;;;;4920182;29;20766;-71
2022/03/15 07:32:49;;;;;;;2.47;1.85;;;23.30;27.50;;;;;;4937479;29;20446;-71
2022/03/15 07:35:14;;;;;;;2.60;1.77;;;23.20;27.40;;;;;;4920211;29;20411;-70
2022/03/15 07:37:55;;;;;;;2.50;1.77;;;23.30;27.50;;;;;;4920185;29;20419;-70
2022/03/15 07:40:25;;;;;;;2.47;1.70;;;23.20;27.40;;;;;;4937478;29;20423;-70
2022/03/15 07:42:52;;;;;;;2.50;1.75;;;23.20;27.90;;;;;;4920164;29;20396;-70
2022/03/15 07:45:18;;;;;;;2.80;1.80;;;23.20;27.50;;;;;;4919966;29;20430;-71
2022/03/15 07:47:44;;;;;;;2.30;1.77;;;23.20;27.50;;;;;;4919835;29;20406;-71
2022/03/15 07:50:10;;;;;;;2.97;1.80;;;23.20;27.40;;;;;;4936974;29;21074;-70
2022/03/15 07:52:36;;;;;;;2.53;1.70;;;23.20;27.40;;;;;;4920033;29;20462;-70
2022/03/15 07:55:01;;;;;;;2.60;1.70;;;23.20;27.40;;;;;;4919739;29;20402;-71
2022/03/15 07:57:27;;;;;;;2.30;1.77;;;23.20;27.40;;;;;;4919750;29;20435;-71
2022/03/15 07:59:53;;;;;;;2.60;1.73;;;23.20;27.50;;;;;;4919470;29;20395;-70
2022/03/15 08:02:19;;;;;;;2.28;1.90;;;23.20;27.50;;;;;;4936743;29;20407;-71
2022/03/15 08:04:44;;;;;;;3.30;2.08;;;23.20;27.50;;;;;;4936953;29;20406;-70
2022/03/15 08:07:10;;;;;;;2.67;1.83;;;23.20;27.40;;;;;;4936869;29;20435;-70
2022/03/15 08:09:38;;;;;;;2.22;1.77;;;23.20;27.40;;;;;;4936570;29;20811;-70
2022/03/15 08:12:04;;;;;;;2.10;1.80;;;23.20;27.50;;;;;;4936182;29;20917;-71
2022/03/15 08:14:30;;;;;;;2.30;1.75;;;23.20;27.40;;;;;;4919823;29;20412;-70
2022/03/15 08:16:56;;;;;;;2.40;1.63;;;23.20;27.50;;;;;;4919641;29;20478;-71
2022/03/15 08:19:21;;;;;;;2.78;1.70;;;23.20;27.40;;;;;;4936483;29;20423;-72
2022/03/15 08:21:47;;;;;;;2.47;1.80;;;23.20;27.40;;;;;;4936239;29;20396;-71
2022/03/15 08:24:14;;;;;;;2.65;1.75;;;23.20;27.40;;;;;;4935883;29;20806;-71
2022/03/15 08:26:40;;;;;;;2.97;2.10;;;23.30;27.40;;;;;;4936620;29;20443;-71
2022/03/15 08:29:06;;;;;;;2.17;1.80;;;23.30;27.40;;;;;;4936381;29;20398;-71
2022/03/15 08:31:32;;;;;;;2.58;1.80;;;23.30;27.30;;;;;;4936419;29;20403;-71
2022/03/15 08:33:57;;;;;;;2.92;1.95;;;23.30;27.30;;;;;;4934907;29;20391;-70
2022/03/15 08:36:23;;;;;;;2.87;2.30;;;23.30;27.30;;;;;;4935979;29;20415;-70
2022/03/15 08:38:49;;;;;;;2.90;2.10;;;23.30;27.30;;;;;;4936045;29;20407;-71
2022/03/15 08:41:14;;;;;;;2.80;2.10;;;23.30;27.30;;;;;;4918952;29;20434;-71
2022/03/15 08:43:40;;;;;;;2.75;2.15;;;23.30;27.30;;;;;;4936219;29;20395;-71
2022/03/15 08:46:06;;;;;;;2.83;2.17;;;23.30;27.30;;;;;;4918483;29;20396;-70
2022/03/15 08:48:32;;;;;;;2.40;1.90;;;23.30;27.30;;;;;;4918997;29;20391;-69
2022/03/15 08:51:01;;;;;;;2.33;1.80;;;23.30;27.30;;;;;;4935876;29;20399;-71
2022/03/15 08:53:28;;;;;;;2.58;2.10;;;23.30;27.30;;;;;;4936079;29;20450;-70
2022/03/15 08:55:55;;;;;;;2.55;1.80;;;23.30;27.30;;;;;;4918441;29;20867;-70
2022/03/15 08:58:21;;;;;;;2.60;1.90;;;23.40;27.30;;;;;;4935885;29;20459;-71
2022/03/15 09:00:48;;;;;;;2.65;2.10;;;23.30;27.30;;;;;;4918763;29;20802;-71
2022/03/15 09:03:14;;;;;;;2.78;2.10;;;23.40;27.30;;;;;;4918366;29;20906;-71
2022/03/15 09:05:39;;;;;;;2.67;2.05;;;23.30;27.20;;;;;;4935789;29;20470;-71
2022/03/15 09:08:05;;;;;;;2.63;1.97;;;23.30;27.30;;;;;;4918216;29;21522;-71
2022/03/15 09:10:31;;;;;;;2.30;1.83;;;23.30;27.30;;;;;;4918750;29;20396;-71
2022/03/15 09:12:56;;;;;;;2.70;2.13;;;23.30;27.30;;;;;;4918526;29;20928;-70
2022/03/15 09:15:23;;;;;;;2.93;2.20;;;23.30;27.40;;;;;;4918462;29;20917;-71
2022/03/15 09:17:49;;;;;;;2.50;2.10;;;23.30;27.30;;;;;;4935274;29;20426;-70
2022/03/15 09:20:15;;;;;;;3.10;2.10;;;23.30;27.30;;;;;;4935096;29;20464;-71
2022/03/15 09:22:41;;;;;;;2.70;1.98;;;23.30;27.30;;;;;;4935504;29;20408;-73
2022/03/15 09:25:07;;;;;;;2.95;2.13;;;23.30;27.30;;;;;;4935618;29;20406;-69
2022/03/15 09:27:33;;;;;;;2.70;2.00;;;23.20;27.30;;;;;;4918329;29;20498;-72
2022/03/15 09:30:00;;;;;;;2.58;2.03;;;23.30;27.30;;;;;;4917743;29;20907;-71
2022/03/15 09:32:27;;;;;;;2.50;2.00;;;23.30;27.40;;;;;;4935345;29;20395;-71
2022/03/15 09:34:54;;;;;;;2.63;1.83;;;23.30;27.40;;;;;;4935263;29;20882;-71
2022/03/15 09:37:20;;;;;;;2.28;1.88;;;23.30;27.40;;;;;;4935165;29;20969;-71
2022/03/15 09:39:47;;;;;;;2.70;2.00;;;23.30;27.30;;;;;;4935033;29;20395;-69
2022/03/15 09:42:16;;;;;;;2.50;2.00;;;23.30;27.40;;;;;;4946978;28;20397;-71
2022/03/15 09:44:41;;;;;;;3.80;2.17;;;23.20;27.40;;;;;;4953719;28;20398;-70
2022/03/15 09:47:08;;;;;;;3.35;2.03;;;23.20;27.40;;;;;;4952347;28;20465;-70
2022/03/15 09:49:35;;;;;;;3.08;2.00;;;23.30;27.40;;;;;;4953580;29;20906;-70
2022/03/15 09:52:07;;;;;;;2.60;1.80;;;23.30;27.30;;;;;;4953069;29;20405;-70
2022/03/15 09:54:34;;;;;;;2.20;1.60;;;23.30;27.30;;;;;;4954434;29;20382;-70
2022/03/15 09:57:02;;;;;;;2.40;1.80;;;23.30;27.40;;;;;;4946217;28;20424;-71
2022/03/15 09:59:28;;;;;;;3.30;1.88;;;23.30;27.30;;;;;;4972563;28;20385;-71
2022/03/15 10:01:56;;;;;;;3.13;1.60;;;23.30;27.30;;;;;;4939728;29;20412;-71
2022/03/15 10:04:23;;;;;;;3.30;1.63;;;23.30;27.30;;;;;;4958154;28;20423;-71
2022/03/15 10:06:51;;;;;;;2.53;1.60;;;23.30;27.30;;;;;;4957827;28;20910;-69
2022/03/15 10:09:19;;;;;;;2.58;1.90;;;23.30;27.30;;;;;;4953716;28;20406;-73
2022/03/15 10:11:44;;;;;;;2.60;1.80;;;23.30;27.30;;;;;;4961186;28;20404;-70
2022/03/15 10:14:11;;;;;;;2.53;1.80;;;23.30;27.30;;;;;;4946449;28;20923;-71
2022/03/15 10:16:42;;;;;;;2.38;1.60;;;23.30;27.30;;;;;;4951908;28;20460;-70
2022/03/15 10:19:13;;;;;;;2.22;1.80;;;23.30;27.30;;;;;;4945792;28;20517;-70
2022/03/15 10:22:02;;;;;;;2.42;1.80;;;23.30;27.40;;;;;;4949130;28;20930;-70
2022/03/15 10:24:29;;;;;;;2.50;1.60;;;23.30;27.30;;;;;;4942510;28;20393;-71
2022/03/15 10:27:01;;;;;;;2.40;1.80;;;23.30;27.40;;;;;;4947389;28;20903;-72
2022/03/15 10:29:28;;;;;;;2.40;1.70;;;23.30;27.40;;;;;;4947500;29;20405;-71
2022/03/15 10:31:54;;;;;;;2.20;1.70;;;23.30;27.40;;;;;;4953315;29;20884;-71
2022/03/15 10:34:21;;;;;;;2.47;1.70;;;23.20;27.40;;;;;;4953058;29;20386;-71
2022/03/15 10:36:51;;;;;;;2.72;1.75;;;23.40;27.50;;;;;;4953073;29;20436;-71
2022/03/15 10:39:18;;;;;;;4.18;1.70;;;23.10;27.50;;;;;;4953243;29;20456;-72
2022/03/15 10:41:52;;;;;;;3.15;1.77;;;23.20;27.50;;;;;;4953460;29;20854;-72
2022/03/15 10:44:28;;;;;;;2.85;1.80;;;23.20;27.50;;;;;;4953066;29;20397;-72
2022/03/15 10:47:07;;;;;;;2.90;1.80;;;23.20;27.50;;;;;;4953413;29;20447;-71
2022/03/15 10:49:47;;;;;;;3.00;1.60;;;23.20;27.40;;;;;;4953242;29;20397;-72
2022/03/15 10:52:34;;;;;;;2.97;1.70;;;23.30;27.50;;;;;;4952534;29;20390;-71
2022/03/15 10:55:23;;;;;;;2.53;1.90;;;23.30;27.40;;;;;;4951518;28;20421;-72
2022/03/15 10:57:53;;;;;;;2.27;1.53;;;23.30;27.40;;;;;;4937798;29;20510;-72
2022/03/15 11:00:22;;;;;;;2.53;1.73;;;23.30;27.40;;;;;;4956920;29;20401;-70
2022/03/15 11:02:50;;;;;;;2.28;1.70;;;23.20;27.40;;;;;;4940018;29;20394;-71
2022/03/15 11:05:29;;;;;;;2.15;1.67;;;23.30;27.40;;;;;;4957001;29;20385;-71
2022/03/15 11:07:56;;;;;;;2.30;1.70;;;23.20;27.40;;;;;;4956937;29;20532;-72
2022/03/15 11:10:23;;;;;;;2.40;1.58;;;23.30;27.50;;;;;;4939598;29;20500;-71
2022/03/15 11:13:07;;;;;;;2.53;1.70;;;23.20;27.40;;;;;;4957026;29;20389;-72
2022/03/15 11:15:34;;;;;;;2.00;1.60;;;23.20;27.40;;;;;;4956948;29;20453;-71
2022/03/15 11:18:04;;;;;;;2.13;1.52;;;23.20;27.40;;;;;;4956453;29;20429;-71
2022/03/15 11:20:35;;;;;;;2.47;1.67;;;23.20;27.50;;;;;;4956689;29;20464;-71
2022/03/15 11:23:02;;;;;;;2.22;1.60;;;23.20;27.40;;;;;;4939398;29;20427;-71
2022/03/15 11:25:42;;;;;;;2.15;1.70;;;23.20;27.40;;;;;;4956177;29;20804;-71
2022/03/15 11:28:29;;;;;;;2.10;1.50;;;23.20;27.50;;;;;;4956165;29;20471;-71
2022/03/15 11:30:56;;;;;;;1.90;1.45;;;23.20;27.50;;;;;;4956703;29;20408;-71
2022/03/15 11:33:22;;;;;;;2.50;1.70;;;23.20;27.50;;;;;;4956591;29;20402;-72
2022/03/15 11:35:48;;;;;;;2.63;1.73;;;23.20;27.40;;;;;;4956572;29;20390;-72
2022/03/15 11:38:14;;;;;;;2.22;1.65;;;23.20;27.50;;;;;;4956049;29;20412;-73
2022/03/15 11:40:44;;;;;;;2.40;1.60;;;23.20;27.50;;;;;;4956573;29;20455;-72
2022/03/15 11:43:10;;;;;;;2.27;1.60;;;23.20;27.50;;;;;;4956421;29;20401;-72
2022/03/15 11:45:43;;;;;;;2.13;1.70;;;23.20;27.60;;;;;;4956429;29;20749;-72
2022/03/15 11:48:15;;;;;;;2.13;1.63;;;23.20;27.50;;;;;;4955879;29;20424;-71
2022/03/15 11:50:55;;;;;;;2.38;1.50;;;23.20;27.50;;;;;;4956432;29;20601;-72
2022/03/15 11:53:36;;;;;;;2.08;1.52;;;23.20;27.50;;;;;;4956087;29;20408;-72
2022/03/15 11:56:35;;;;;;;2.60;1.65;;;23.10;27.40;;;;;;4955792;29;20488;-71
2022/03/15 11:59:00;;;;;;;2.42;1.70;;;23.20;27.50;;;;;;4903187;29;20398;-72
2022/03/15 12:01:28;;;;;;;2.20;1.80;;;23.20;27.50;;;;;;4956216;29;20453;-72
2022/03/15 12:03:58;;;;;;;2.08;1.60;;;23.20;27.50;;;;;;4956073;29;20479;-72
2022/03/15 12:06:27;;;;;;;1.92;1.55;;;23.20;27.50;;;;;;4955896;29;20400;-72
2022/03/15 12:08:56;;;;;;;1.83;1.40;;;23.20;27.40;;;;;;4955145;28;20477;-72
2022/03/15 12:11:27;;;;;;;2.38;1.77;;;23.20;27.50;;;;;;4955952;29;20892;-71
2022/03/15 12:14:13;;;;;;;2.30;1.80;;;23.10;27.50;;;;;;4955962;29;20394;-71
2022/03/15 12:16:41;;;;;;;2.47;1.70;;;23.20;27.60;;;;;;4955855;29;21150;-71
2022/03/15 12:19:34;;;;;;;1.95;1.60;;;23.10;27.50;;;;;;4955638;29;20420;-71
2022/03/15 12:22:02;;;;;;;2.67;1.70;;;23.20;27.50;;;;;;4955503;29;20394;-70
2022/03/15 12:24:35;;;;;;;2.50;1.50;;;23.20;27.40;;;;;;4938215;29;20396;-71
2022/03/15 12:27:08;;;;;;;1.83;1.40;;;23.20;27.40;;;;;;4938423;29;20402;-72
2022/03/15 12:29:36;;;;;;;2.00;1.50;;;23.20;27.40;;;;;;4938541;29;20406;-71
2022/03/15 12:32:13;;;;;;;2.10;1.60;;;23.20;27.40;;;;;;4955340;29;20389;-70
2022/03/15 12:34:44;;;;;;;2.40;1.83;;;23.00;27.30;;;;;;4955482;29;20405;-71
2022/03/15 12:37:10;;;;;;;2.58;1.50;;;23.20;27.40;;;;;;4955384;29;20452;-73
2022/03/15 12:39:36;;;;;;;2.13;1.73;;;23.20;27.40;;;;;;4955488;29;20422;-71
2022/03/15 12:42:12;;;;;;;1.98;1.50;;;23.20;27.40;;;;;;4955131;29;20398;-71
2022/03/15 12:44:45;;;;;;;2.10;1.42;;;23.20;27.40;;;;;;4955337;29;20872;-71
2022/03/15 12:47:11;;;;;;;2.08;1.50;;;23.20;27.50;;;;;;4955355;29;20433;-72
2022/03/15 12:49:37;;;;;;;2.80;1.70;;;23.20;27.50;;;;;;4955181;29;20390;-71